Time;durP1;ratioP1;P1;durP2;ratioP2;P2;SDS_P1;SDS_P2;PMS_P1;PMS_P2;Temp;Humidity;BMP_temperature;BMP_pressure;BME280_temperature;BME280_humidity;BME280_pressure;Samples;Min_cycle;Max_cycle;Signal;HPM_P1;HPM_P2
2022/11/08 00:02:19;;;;;;;3.90;3.57;;;;;;;22.37;54.13;97578.88;5046432;28;20251;-31
2022/11/08 00:04:45;;;;;;;3.73;3.43;;;;;;;22.37;53.68;97573.75;5052020;28;20201;-31
2022/11/08 00:15:27;;;;;;;4.13;3.33;;;;;;;22.37;53.62;97565.19;5048332;28;20682;-31
2022/11/08 00:17:53;;;;;;;4.07;3.60;;;;;;;22.36;53.78;97572.03;5061554;28;20207;-31
2022/11/08 00:20:19;;;;;;;4.10;3.70;;;;;;;22.34;53.62;97559.97;5052424;28;20197;-31
2022/11/08 00:22:46;;;;;;;4.40;3.60;;;;;;;22.37;53.54;97566.06;5052568;28;20221;-31
2022/11/08 00:25:12;;;;;;;3.90;3.50;;;;;;;22.36;53.61;97564.34;5047146;28;20216;-31
2022/11/08 00:27:39;;;;;;;3.37;3.07;;;;;;;22.34;53.75;97554.88;5052490;28;20201;-31
2022/11/08 00:30:06;;;;;;;3.90;3.50;;;;;;;22.38;53.55;97556.69;5057901;28;20201;-31
2022/11/08 00:32:32;;;;;;;3.43;3.13;;;;;;;22.38;53.63;97560.09;5052276;28;20220;-31
2022/11/08 00:34:59;;;;;;;3.50;3.20;;;;;;;22.30;53.75;97540.25;5052498;28;20679;-31
2022/11/08 00:37:28;;;;;;;3.40;3.10;;;;;;;22.34;53.71;97553.19;5050490;28;20208;-31
2022/11/08 00:39:55;;;;;;;4.63;3.73;;;;;;;22.36;53.65;97550.66;5052121;28;20200;-31
2022/11/08 00:42:21;;;;;;;3.97;3.57;;;;;;;22.37;53.51;97554.94;5055129;28;20220;-31
2022/11/08 00:44:48;;;;;;;3.67;3.30;;;;;;;22.36;53.63;97556.66;5052449;28;20223;-31
2022/11/08 00:47:14;;;;;;;3.30;3.00;;;;;;;22.34;53.54;97548.06;5046103;28;20204;-31
2022/11/08 00:49:41;;;;;;;3.90;3.23;;;;;;;22.37;53.46;97542.13;5052386;28;20197;-31
2022/11/08 00:52:08;;;;;;;3.63;3.30;;;;;;;22.35;53.65;97552.34;5061901;28;20212;-31
2022/11/08 00:54:34;;;;;;;3.50;3.20;;;;;;;22.36;53.47;97556.66;5052679;28;20204;-31
2022/11/08 00:57:01;;;;;;;3.90;3.50;;;;;;;22.36;53.82;97551.53;5051902;28;20209;-31
2022/11/08 00:59:27;;;;;;;3.77;3.47;;;;;;;22.35;53.54;97554.91;5051842;28;20203;-31
2022/11/08 01:01:54;;;;;;;3.93;3.23;;;;;;;22.36;53.65;97556.66;5052468;28;20225;-31
2022/11/08 01:04:20;;;;;;;3.20;2.93;;;;;;;22.36;53.57;97553.22;5053073;28;20284;-31
2022/11/08 01:06:47;;;;;;;3.33;3.03;;;;;;;22.37;53.46;97549.81;5055752;28;20737;-31
2022/11/08 01:09:13;;;;;;;3.57;3.27;;;;;;;22.30;53.73;97538.56;5058877;28;20204;-31
2022/11/08 01:11:45;;;;;;;4.07;3.40;;;;;;;22.36;53.71;97555.78;5055588;28;20220;-31
2022/11/08 01:14:12;;;;;;;3.67;3.37;;;;;;;22.36;53.58;97543.84;5055838;28;20223;-31
2022/11/08 01:16:39;;;;;;;3.50;3.20;;;;;;;22.35;53.56;97533.56;5055474;28;20192;-31
2022/11/08 01:19:05;;;;;;;3.60;3.30;;;;;;;22.37;53.10;97537.03;5062926;28;20200;-31
2022/11/08 01:21:32;;;;;;;3.47;3.10;;;;;;;22.36;53.22;97536.19;5061753;28;20216;-31
2022/11/08 01:23:58;;;;;;;3.67;3.27;;;;;;;22.37;53.25;97537.03;5055943;28;20212;-31
2022/11/08 01:26:26;;;;;;;3.40;3.10;;;;;;;22.33;53.25;97533.53;5055829;28;20196;-31
2022/11/08 01:28:53;;;;;;;4.03;3.73;;;;;;;22.36;53.15;97530.19;5056213;28;20197;-31
2022/11/08 01:31:21;;;;;;;3.40;3.10;;;;;;;22.29;53.08;97529.13;5055498;28;20223;-31
2022/11/08 01:33:48;;;;;;;3.27;3.07;;;;;;;22.37;52.94;97531.91;5054620;28;20204;-31
2022/11/08 01:36:19;;;;;;;3.53;3.23;;;;;;;22.36;52.98;97525.94;5059651;28;20220;-31
2022/11/08 01:38:46;;;;;;;3.93;3.53;;;;;;;22.37;52.92;97531.91;5062092;28;20197;-31
2022/11/08 01:41:13;;;;;;;3.63;3.33;;;;;;;22.36;53.04;97533.63;5055197;28;20218;-31
2022/11/08 01:43:44;;;;;;;3.33;3.07;;;;;;;22.38;53.06;97536.22;5055171;28;20213;-31
2022/11/08 01:46:17;;;;;;;4.17;3.33;;;;;;;22.37;53.11;97529.34;5055017;28;20205;-31
2022/11/08 01:49:17;;;;;;;3.30;3.03;;;;;;;22.37;53.26;97519.09;5053773;28;20595;-31
2022/11/08 01:51:58;;;;;;;3.40;3.10;;;;;;;22.26;53.20;97489.81;5054108;28;20216;-31
2022/11/08 01:54:37;;;;;;;3.40;3.10;;;;;;;22.38;53.21;97518.28;5050805;28;20203;-31
2022/11/08 01:57:05;;;;;;;4.07;3.53;;;;;;;22.34;53.34;97503.66;5058595;28;20205;-31
2022/11/08 01:59:32;;;;;;;3.20;2.90;;;;;;;22.35;53.27;97502.84;5060295;28;20200;-31
2022/11/08 02:01:58;;;;;;;3.60;3.30;;;;;;;22.33;53.59;97509.63;5054477;28;20225;-31
2022/11/08 02:04:25;;;;;;;4.00;3.60;;;;;;;22.35;53.24;97513.94;5060415;28;20567;-31
2022/11/08 02:06:51;;;;;;;3.70;3.30;;;;;;;22.36;53.70;97517.38;5054867;28;20197;-31
2022/11/08 02:09:18;;;;;;;3.90;3.50;;;;;;;22.36;53.48;97518.25;5054853;28;20224;-31
2022/11/08 02:11:45;;;;;;;3.40;3.10;;;;;;;22.27;53.23;97482.16;5055988;28;20424;-31
2022/11/08 02:14:12;;;;;;;3.37;3.03;;;;;;;22.35;53.07;97500.28;5033796;28;20639;-31
2022/11/08 02:16:38;;;;;;;3.80;3.47;;;;;;;22.35;53.06;97488.31;5046712;28;20705;-30
2022/11/08 02:19:05;;;;;;;3.50;3.20;;;;;;;22.36;53.29;97490.09;5067327;28;20201;-31
2022/11/08 02:21:44;;;;;;;3.60;3.30;;;;;;;22.28;53.09;97477.91;5054393;28;20603;-31
2022/11/08 02:24:11;;;;;;;3.37;3.07;;;;;;;22.37;53.17;97489.25;5053742;28;20219;-31
2022/11/08 02:26:37;;;;;;;3.33;3.03;;;;;;;22.23;53.17;97467.53;5033098;28;20575;-31
2022/11/08 02:29:27;;;;;;;3.33;2.80;;;;;;;22.37;53.04;97488.38;5046570;28;20590;-31
2022/11/08 02:31:54;;;;;;;3.37;3.07;;;;;;;22.37;52.88;97488.38;5054767;28;20224;-31
2022/11/08 02:34:24;;;;;;;3.10;2.90;;;;;;;22.37;53.07;97491.81;5059176;28;20200;-31
2022/11/08 02:36:51;;;;;;;3.40;3.10;;;;;;;22.28;52.75;97471.09;5042840;28;20201;-31
2022/11/08 02:39:17;;;;;;;3.53;3.23;;;;;;;22.38;53.06;97480.72;5054830;28;20200;-31
2022/11/08 02:41:44;;;;;;;3.60;3.30;;;;;;;22.39;52.92;97494.41;5054318;28;20695;-31
2022/11/08 02:44:10;;;;;;;3.40;3.10;;;;;;;22.39;52.97;97486.72;5053332;28;20220;-31
2022/11/08 02:46:37;;;;;;;3.60;2.93;;;;;;;22.39;52.92;97479.91;5054176;28;20234;-31
2022/11/08 02:49:03;;;;;;;3.50;3.10;;;;;;;22.38;53.01;97478.16;5053686;28;20229;-31
2022/11/08 02:51:30;;;;;;;3.23;2.93;;;;;;;22.35;52.86;97467.84;5059921;28;20590;-31
2022/11/08 02:53:56;;;;;;;3.60;3.30;;;;;;;22.36;52.90;97461.03;5054742;28;20197;-31
2022/11/08 02:56:23;;;;;;;3.23;2.93;;;;;;;22.40;53.13;97460.28;5058828;28;20203;-31
2022/11/08 02:58:49;;;;;;;3.30;3.00;;;;;;;22.40;53.03;97462.84;5059917;28;20197;-31
2022/11/08 03:01:16;;;;;;;4.70;3.03;;;;;;;22.40;53.01;97457.72;5053814;28;20256;-31
2022/11/08 03:03:43;;;;;;;3.50;3.20;;;;;;;22.40;52.84;97462.84;5054037;28;20244;-31
2022/11/08 03:06:09;;;;;;;3.63;3.33;;;;;;;22.40;52.99;97460.28;5058193;28;20193;-31
2022/11/08 03:08:36;;;;;;;4.93;3.33;;;;;;;22.40;52.92;97460.28;5057208;28;20533;-31
2022/11/08 03:11:02;;;;;;;3.20;2.90;;;;;;;22.41;53.03;97459.47;5054094;28;20220;-31
2022/11/08 03:13:29;;;;;;;3.50;3.20;;;;;;;22.40;53.03;97450.91;5049588;28;20201;-31
2022/11/08 03:15:55;;;;;;;3.47;2.87;;;;;;;22.36;52.96;97444.00;5053743;28;20216;-31
2022/11/08 03:18:22;;;;;;;3.33;3.03;;;;;;;22.40;52.85;97453.47;5057637;28;20216;-31
2022/11/08 03:20:48;;;;;;;4.17;3.17;;;;;;;22.39;52.99;97450.88;5051208;28;20205;-31
2022/11/08 03:23:15;;;;;;;3.37;3.07;;;;;;;22.33;52.85;97437.91;5052948;28;20635;-31
2022/11/08 03:25:41;;;;;;;3.27;3.00;;;;;;;22.40;52.93;97456.03;5052940;28;20201;-31
2022/11/08 03:28:08;;;;;;;4.43;3.57;;;;;;;22.41;52.91;97462.03;5052898;28;20722;-31
2022/11/08 03:30:34;;;;;;;3.40;3.10;;;;;;;22.41;52.89;97460.31;5053187;28;20215;-32
2022/11/08 03:33:01;;;;;;;3.50;3.20;;;;;;;22.40;52.99;97463.72;5032345;28;20734;-31
2022/11/08 03:35:27;;;;;;;3.30;3.00;;;;;;;22.40;52.99;97461.16;5059937;28;20208;-31
2022/11/08 03:37:55;;;;;;;3.93;3.37;;;;;;;22.36;52.78;97450.81;5063593;28;20201;-31
2022/11/08 03:40:21;;;;;;;3.20;2.90;;;;;;;22.37;52.87;97453.41;5052635;28;20586;-31
2022/11/08 03:42:48;;;;;;;3.30;2.80;;;;;;;22.40;52.90;97450.91;5056667;28;20312;-31
2022/11/08 03:45:15;;;;;;;3.33;3.03;;;;;;;22.39;53.13;97446.63;5049332;28;20200;-31
2022/11/08 03:47:42;;;;;;;3.43;3.13;;;;;;;22.42;53.06;97448.38;5045388;28;20579;-31
2022/11/08 03:50:09;;;;;;;4.73;3.00;;;;;;;22.41;52.92;97441.53;5052153;28;20595;-31
2022/11/08 03:52:55;;;;;;;3.13;2.83;;;;;;;22.41;53.00;97454.34;5067839;28;20220;-31
2022/11/08 03:55:23;;;;;;;3.73;3.10;;;;;;;22.41;53.15;97449.22;5047725;28;20376;-31
2022/11/08 03:57:50;;;;;;;3.50;3.00;;;;;;;22.40;53.00;97453.47;5061193;28;20197;-31
2022/11/08 04:00:18;;;;;;;3.67;3.03;;;;;;;22.36;52.88;97438.88;5054543;28;20200;-31
2022/11/08 04:02:45;;;;;;;3.50;2.97;;;;;;;22.36;52.98;97433.75;5046328;28;20224;-31
2022/11/08 04:05:12;;;;;;;3.33;3.03;;;;;;;22.37;52.90;97448.28;5058634;28;20208;-31
2022/11/08 04:07:38;;;;;;;3.43;3.10;;;;;;;22.39;52.94;97433.81;5045434;28;20285;-31
2022/11/08 04:10:06;;;;;;;3.67;3.27;;;;;;;22.39;52.88;97436.38;5060466;28;20223;-31
2022/11/08 04:15:19;;;;;;;3.20;2.90;;;;;;;22.39;52.79;97438.94;5042399;28;20215;-31
2022/11/08 04:23:18;;;;;;;3.10;2.80;;;;;;;22.40;52.81;97442.34;5050510;28;20243;-31
2022/11/08 04:25:44;;;;;;;3.00;2.80;;;;;;;22.39;53.02;97436.38;5054778;28;20211;-31
2022/11/08 04:28:11;;;;;;;3.10;2.80;;;;;;;22.39;53.08;97435.50;5053964;28;20201;-31
2022/11/08 04:30:37;;;;;;;3.50;3.20;;;;;;;22.33;53.13;97417.44;5053574;28;20196;-31
2022/11/08 04:33:04;;;;;;;2.73;2.53;;;;;;;22.38;53.09;97434.63;5047411;28;20217;-31
2022/11/08 04:35:30;;;;;;;3.00;2.80;;;;;;;22.39;53.17;97432.94;5045316;28;20209;-31
2022/11/08 04:37:58;;;;;;;2.80;2.60;;;;;;;22.39;53.33;97427.84;5045114;28;20580;-31
2022/11/08 04:40:25;;;;;;;2.67;2.47;;;;;;;22.37;53.20;97419.22;5046723;28;20208;-31
2022/11/08 04:42:52;;;;;;;3.00;2.70;;;;;;;22.39;53.54;97417.59;5045867;28;20236;-31
2022/11/08 04:45:18;;;;;;;3.03;2.73;;;;;;;22.40;53.23;97427.00;5048031;28;20204;-31
2022/11/08 04:47:45;;;;;;;2.90;2.70;;;;;;;22.40;53.16;97424.44;5042208;28;20200;-31
2022/11/08 04:50:14;;;;;;;3.30;3.00;;;;;;;22.40;53.01;97421.88;5042586;28;20223;-31
2022/11/08 04:52:41;;;;;;;2.83;2.60;;;;;;;22.36;52.89;97409.84;5062384;28;20217;-31
2022/11/08 04:55:07;;;;;;;2.63;2.43;;;;;;;22.39;52.92;97412.47;5055540;28;20193;-31
2022/11/08 04:57:34;;;;;;;3.10;2.80;;;;;;;22.37;52.81;97403.88;5045240;28;20197;-31
2022/11/08 05:00:00;;;;;;;3.10;2.80;;;;;;;22.38;52.77;97406.47;5057557;28;20741;-31
2022/11/08 05:02:27;;;;;;;3.23;2.93;;;;;;;22.40;52.70;97411.63;5055314;28;20220;-31
2022/11/08 05:04:54;;;;;;;3.23;2.93;;;;;;;22.40;52.60;97411.63;5050123;28;20311;-31
2022/11/08 05:07:20;;;;;;;3.10;2.80;;;;;;;22.39;52.92;97400.53;5056447;28;20671;-31
2022/11/08 05:09:47;;;;;;;2.97;2.67;;;;;;;22.39;52.66;97397.09;5054850;28;20209;-31
2022/11/08 05:12:13;;;;;;;2.93;2.73;;;;;;;22.37;52.75;97399.63;5048362;28;20307;-31
2022/11/08 05:14:40;;;;;;;2.90;2.70;;;;;;;22.40;53.29;97399.69;5045000;28;20205;-31
2022/11/08 05:17:06;;;;;;;2.70;2.50;;;;;;;22.40;52.82;97396.25;5053132;28;20467;-31
2022/11/08 05:25:03;;;;;;;4.10;2.67;;;;;;;22.34;52.96;97391.00;5052366;28;20200;-31
2022/11/08 05:27:29;;;;;;;3.13;2.40;;;;;;;22.39;53.09;97402.22;5050303;28;20203;-31
2022/11/08 05:29:56;;;;;;;2.70;2.50;;;;;;;22.39;53.33;97410.78;5066266;28;20209;-31
2022/11/08 05:32:22;;;;;;;2.87;2.63;;;;;;;22.39;53.16;97410.78;5052086;28;20220;-31
2022/11/08 05:34:49;;;;;;;2.70;2.50;;;;;;;22.39;53.03;97403.09;5057965;28;20207;-31
2022/11/08 05:37:15;;;;;;;2.60;2.40;;;;;;;22.38;53.18;97391.09;5052297;28;20213;-31
2022/11/08 05:39:41;;;;;;;2.70;2.50;;;;;;;22.38;53.34;97388.53;5054041;28;20200;-31
2022/11/08 05:42:08;;;;;;;3.03;2.73;;;;;;;22.39;53.19;97387.75;5058071;28;20733;-31
2022/11/08 05:44:35;;;;;;;2.87;2.67;;;;;;;22.40;53.12;97386.91;5062265;28;20586;-31
2022/11/08 05:47:01;;;;;;;3.10;2.80;;;;;;;22.40;52.90;97386.91;5059497;28;20674;-31
2022/11/08 05:49:28;;;;;;;2.60;2.40;;;;;;;22.34;52.96;97378.19;5053482;28;20201;-31
2022/11/08 05:51:54;;;;;;;2.80;2.60;;;;;;;22.40;52.78;97386.91;5049016;28;20743;-31
2022/11/08 05:54:21;;;;;;;2.70;2.50;;;;;;;22.40;52.90;97392.03;5058439;28;20203;-31
2022/11/08 05:56:47;;;;;;;3.23;2.50;;;;;;;22.40;52.83;97393.69;5056380;28;20201;-31
2022/11/08 05:59:14;;;;;;;4.67;3.40;;;;;;;22.40;51.25;97386.91;5060216;28;20196;-31
2022/11/08 06:01:40;;;;;;;4.17;3.77;;;;;;;22.41;50.14;97390.34;5053859;28;20237;-31
2022/11/08 06:04:07;;;;;;;5.57;3.70;;;;;;;22.40;48.17;97397.13;5058622;28;20225;-31
2022/11/08 06:06:33;;;;;;;5.20;3.63;;;;;;;22.35;46.67;97385.91;5042754;28;20202;-31
2022/11/08 06:09:00;;;;;;;5.53;3.60;;;;;;;22.37;46.27;97398.75;5054848;28;20204;-31
2022/11/08 06:11:27;;;;;;;10.50;3.87;;;;;;;22.38;46.37;97400.50;5047968;28;20236;-31
2022/11/08 06:13:53;;;;;;;5.73;3.67;;;;;;;22.36;47.00;97397.03;5050210;28;20660;-31
2022/11/08 06:16:21;;;;;;;5.13;3.80;;;;;;;22.35;47.10;97401.28;5047516;28;20201;-31
2022/11/08 06:18:47;;;;;;;6.67;3.73;;;;;;;22.31;47.37;97402.03;5047278;28;20218;-31
2022/11/08 06:21:15;;;;;;;6.67;4.07;;;;;;;22.35;47.72;97405.56;5045414;28;20220;-31
2022/11/08 06:23:42;;;;;;;4.43;4.00;;;;;;;22.34;48.26;97402.13;5047893;28;20216;-31
2022/11/08 06:26:08;;;;;;;5.43;3.63;;;;;;;22.34;48.54;97411.47;5047455;28;20204;-31
2022/11/08 06:28:35;;;;;;;8.03;3.80;;;;;;;22.34;49.09;97411.47;5057326;28;20204;-31
2022/11/08 06:31:02;;;;;;;6.10;3.63;;;;;;;22.34;49.45;97406.34;5049141;28;20663;-31
2022/11/08 06:33:28;;;;;;;6.00;3.07;;;;;;;22.35;49.64;97408.97;5064838;28;20279;-31
2022/11/08 06:35:55;;;;;;;4.93;3.83;;;;;;;22.35;49.78;97415.78;5045189;28;20197;-31
2022/11/08 06:38:21;;;;;;;7.87;3.27;;;;;;;22.35;49.78;97418.34;5063606;28;20659;-31
2022/11/08 06:40:48;;;;;;;5.47;3.63;;;;;;;22.35;49.80;97413.22;5043134;28;20213;-31
2022/11/08 06:43:14;;;;;;;3.97;3.13;;;;;;;22.35;50.10;97411.50;5048820;28;20574;-31
2022/11/08 06:45:45;;;;;;;6.30;3.40;;;;;;;22.35;50.38;97408.97;5046465;28;20205;-31
2022/11/08 06:48:11;;;;;;;7.07;3.13;;;;;;;22.36;50.54;97414.94;5047066;28;20603;-31
2022/11/08 06:50:38;;;;;;;3.60;3.20;;;;;;;22.36;50.52;97415.84;5049426;28;20204;-31
2022/11/08 06:53:05;;;;;;;4.43;3.20;;;;;;;22.31;50.58;97408.84;5060263;28;20235;-31
2022/11/08 06:55:32;;;;;;;3.70;3.10;;;;;;;22.36;50.72;97414.94;5060609;28;20197;-31
2022/11/08 06:57:59;;;;;;;3.67;3.17;;;;;;;22.36;50.96;97418.38;5062390;28;20240;-31
2022/11/08 07:00:25;;;;;;;5.67;3.40;;;;;;;22.30;51.10;97410.56;5056965;28;20569;-31
2022/11/08 07:02:56;;;;;;;4.37;3.00;;;;;;;22.36;50.99;97430.31;5050936;28;20314;-31
2022/11/08 07:05:23;;;;;;;3.83;3.23;;;;;;;22.36;50.58;97427.75;5059053;28;20691;-31
2022/11/08 07:07:53;;;;;;;4.33;3.30;;;;;;;22.34;48.85;97432.84;5057803;28;20693;-31
2022/11/08 07:10:20;;;;;;;4.90;3.40;;;;;;;22.32;46.22;97421.69;5046251;28;20209;-31
2022/11/08 07:12:47;;;;;;;5.93;3.83;;;;;;;22.34;44.55;97430.28;5049383;28;20698;-31
2022/11/08 07:15:13;;;;;;;6.20;3.90;;;;;;;22.31;43.56;97426.78;5042922;28;20201;-31
2022/11/08 07:17:40;;;;;;;10.60;4.13;;;;;;;22.31;43.30;97430.19;5044834;28;20205;-31
2022/11/08 07:20:07;;;;;;;8.57;3.60;;;;;;;22.30;42.81;97431.03;5050006;28;20424;-31
2022/11/08 07:22:34;;;;;;;10.73;4.00;;;;;;;22.29;43.18;97423.31;5040470;28;20603;-31
2022/11/08 07:25:01;;;;;;;7.97;3.33;;;;;;;22.26;44.00;97418.97;5048793;28;20737;-31
2022/11/08 07:27:27;;;;;;;5.43;3.87;;;;;;;22.26;45.02;97420.69;5044533;28;20344;-31
2022/11/08 07:29:54;;;;;;;8.53;3.60;;;;;;;22.25;45.22;97413.81;5043926;28;20643;-31
2022/11/08 07:32:20;;;;;;;7.87;3.50;;;;;;;22.24;45.76;97420.66;5048058;28;20225;-31
2022/11/08 07:34:47;;;;;;;4.60;3.50;;;;;;;22.23;46.19;97436.81;5037371;28;20687;-31
2022/11/08 07:37:13;;;;;;;8.13;4.00;;;;;;;22.23;46.51;97430.84;5047642;28;20197;-30
2022/11/08 07:39:40;;;;;;;10.00;3.87;;;;;;;22.22;46.86;97429.09;5041129;28;20200;-31
2022/11/08 07:42:06;;;;;;;10.70;3.63;;;;;;;22.18;46.92;97410.25;5047102;28;20607;-31
2022/11/08 07:44:33;;;;;;;5.93;3.10;;;;;;;22.19;47.24;97404.31;5054094;28;20220;-31
2022/11/08 07:46:59;;;;;;;5.77;3.20;;;;;;;22.23;47.41;97415.50;5046588;28;20651;-31
2022/11/08 07:49:26;;;;;;;4.37;3.17;;;;;;;22.18;47.66;97404.25;5041825;28;20220;-31
2022/11/08 07:51:52;;;;;;;4.63;3.60;;;;;;;22.20;47.96;97402.63;5048212;28;20221;-31
2022/11/08 07:54:19;;;;;;;5.83;3.37;;;;;;;22.25;48.01;97401.00;5050798;28;20208;-31
2022/11/08 07:56:45;;;;;;;7.30;3.57;;;;;;;22.21;47.83;97394.97;5051904;28;20196;-31
2022/11/08 07:59:12;;;;;;;3.83;3.40;;;;;;;22.24;47.86;97407.84;5042275;28;20199;-31
2022/11/08 08:01:38;;;;;;;5.33;3.67;;;;;;;22.25;48.04;97411.25;5044142;28;20236;-31
2022/11/08 08:04:05;;;;;;;6.20;3.63;;;;;;;22.24;48.01;97407.84;5047742;28;20220;-31
2022/11/08 08:06:32;;;;;;;4.53;3.20;;;;;;;22.23;48.56;97406.09;5035892;28;20197;-31
2022/11/08 08:08:59;;;;;;;7.07;3.60;;;;;;;22.25;48.61;97413.81;5056011;28;20701;-31
2022/11/08 08:11:25;;;;;;;7.80;3.50;;;;;;;22.23;49.17;97413.78;5042026;28;20229;-31
2022/11/08 08:13:58;;;;;;;4.43;3.13;;;;;;;22.26;49.09;97421.53;5037896;28;20285;-31
2022/11/08 08:16:25;;;;;;;3.67;2.83;;;;;;;22.23;49.24;97416.34;5041329;28;20197;-31
2022/11/08 08:18:51;;;;;;;4.90;3.00;;;;;;;22.28;49.28;97416.44;5036560;28;20571;-31
2022/11/08 08:21:22;;;;;;;3.63;2.83;;;;;;;22.28;49.21;97416.44;5045809;28;20256;-31
2022/11/08 08:23:48;;;;;;;5.63;4.00;;;;;;;22.28;49.43;97419.88;5043399;28;20256;-31
2022/11/08 08:26:15;;;;;;;3.33;2.90;;;;;;;22.29;49.65;97431.84;5047300;28;20208;-31
2022/11/08 08:28:41;;;;;;;4.20;3.33;;;;;;;22.28;49.67;97413.88;5044619;28;20203;-31
2022/11/08 08:31:08;;;;;;;4.00;2.93;;;;;;;22.28;49.74;97419.88;5041466;28;20259;-31
2022/11/08 08:33:35;;;;;;;5.57;3.00;;;;;;;22.29;49.86;97408.81;5036187;28;20236;-31
2022/11/08 08:36:03;;;;;;;4.03;2.83;;;;;;;22.30;49.97;97419.94;5039746;28;20204;-31
2022/11/08 08:38:30;;;;;;;3.93;2.80;;;;;;;22.30;50.04;97412.25;5042178;28;20585;-31
2022/11/08 08:40:57;;;;;;;4.43;2.83;;;;;;;22.30;49.99;97412.25;5044890;28;20540;-31
2022/11/08 08:43:23;;;;;;;3.30;2.77;;;;;;;22.30;49.82;97407.13;5047769;28;20441;-31
2022/11/08 08:45:50;;;;;;;3.53;3.23;;;;;;;22.25;50.08;97398.44;5045847;28;20233;-31
2022/11/08 08:48:16;;;;;;;3.23;2.90;;;;;;;22.30;49.94;97413.13;5045184;28;20204;-31
2022/11/08 08:50:43;;;;;;;3.17;2.87;;;;;;;22.30;50.16;97402.88;5045187;28;20204;-31
2022/11/08 08:53:10;;;;;;;4.70;2.77;;;;;;;22.31;49.92;97402.03;5043917;28;20197;-31
2022/11/08 08:55:37;;;;;;;6.37;3.30;;;;;;;22.31;50.22;97406.28;5044917;28;20196;-31
2022/11/08 08:58:04;;;;;;;3.97;3.10;;;;;;;22.29;50.16;97402.84;5044680;28;20216;-31
2022/11/08 09:00:31;;;;;;;4.77;3.10;;;;;;;22.31;50.11;97411.41;5042078;28;20201;-30
2022/11/08 09:03:18;;;;;;;5.27;2.90;;;;;;;22.31;50.30;97407.16;5042514;28;20213;-30
2022/11/08 09:05:45;;;;;;;3.50;3.13;;;;;;;22.31;50.17;97414.84;5036964;28;20228;-31
2022/11/08 09:08:14;;;;;;;5.57;2.63;;;;;;;22.30;50.20;97419.94;5048313;28;20209;-31
2022/11/08 09:10:41;;;;;;;5.03;3.40;;;;;;;22.30;50.41;97408.00;5047661;28;20201;-31
2022/11/08 09:13:07;;;;;;;3.40;3.03;;;;;;;22.29;50.18;97406.25;5044090;28;20217;-31
2022/11/08 09:15:34;;;;;;;5.80;3.73;;;;;;;22.33;50.14;97407.19;5042718;28;20212;-31
2022/11/08 09:18:00;;;;;;;5.00;4.03;;;;;;;22.33;50.54;97412.31;5039447;28;20204;-31
2022/11/08 09:20:27;;;;;;;6.43;3.80;;;;;;;22.32;50.40;97406.31;5045891;28;20282;-31
2022/11/08 09:22:53;;;;;;;4.17;3.70;;;;;;;22.32;50.80;97408.88;5042907;28;20497;-31
2022/11/08 09:25:20;;;;;;;4.83;3.80;;;;;;;22.30;50.42;97408.00;5046796;28;20224;-31
2022/11/08 09:27:46;;;;;;;6.37;4.20;;;;;;;22.33;50.61;97407.19;5045881;28;20204;-31
2022/11/08 09:30:13;;;;;;;5.47;4.50;;;;;;;22.32;50.49;97416.56;5058426;28;20700;-31
2022/11/08 09:32:40;;;;;;;8.57;5.43;;;;;;;22.32;50.66;97413.16;5062379;28;20599;-31
2022/11/08 09:35:26;;;;;;;15.23;9.67;;;;;;;22.23;50.00;97397.56;5055980;28;20192;-31
2022/11/08 09:37:53;;;;;;;16.53;10.10;;;;;;;22.32;49.14;97414.00;5045613;28;20668;-31
2022/11/08 09:40:26;;;;;;;12.60;8.87;;;;;;;22.31;49.50;97409.72;5046623;28;20197;-31
2022/11/08 09:43:07;;;;;;;13.23;8.97;;;;;;;22.31;49.59;97408.84;5049189;28;20220;-31
2022/11/08 09:45:42;;;;;;;14.30;9.37;;;;;;;22.24;49.77;97412.97;5045650;28;20704;-31
2022/11/08 09:48:20;;;;;;;17.53;10.17;;;;;;;22.31;49.67;97419.09;5035632;28;20204;-31
2022/11/08 09:50:46;;;;;;;15.53;9.43;;;;;;;22.20;50.16;97389.81;5033105;28;20200;-31
2022/11/08 09:53:33;;;;;;;17.37;9.63;;;;;;;22.20;50.11;97392.38;5049867;28;20208;-31
2022/11/08 09:56:14;;;;;;;12.43;8.80;;;;;;;22.20;50.04;97392.38;5050622;28;20615;-31
2022/11/08 09:58:50;;;;;;;15.67;9.30;;;;;;;22.29;50.24;97406.25;5043276;28;20200;-31
2022/11/08 10:01:16;;;;;;;13.07;8.30;;;;;;;22.25;50.30;97398.44;5049678;28;20710;-31
2022/11/08 10:03:51;;;;;;;11.10;8.17;;;;;;;22.29;50.24;97419.03;5051384;28;20201;-31
2022/11/08 10:06:45;;;;;;;12.87;8.40;;;;;;;22.27;50.38;97402.81;5053203;28;20231;-31
2022/11/08 10:09:11;;;;;;;9.30;7.37;;;;;;;22.30;50.47;97405.44;5051636;28;20663;-31
2022/11/08 10:11:51;;;;;;;9.67;7.23;;;;;;;22.30;50.46;97407.13;5048438;28;20221;-31
2022/11/08 10:14:26;;;;;;;10.10;7.43;;;;;;;22.30;50.62;97394.31;5051189;28;20662;-31
2022/11/08 10:17:18;;;;;;;10.80;7.63;;;;;;;22.30;50.77;97392.63;5049316;28;20193;-31
2022/11/08 10:19:50;;;;;;;8.77;7.27;;;;;;;22.31;50.90;97398.59;5054517;28;20205;-31
2022/11/08 10:22:28;;;;;;;10.30;7.00;;;;;;;22.30;50.87;97391.75;5052394;28;20217;-31
2022/11/08 10:25:25;;;;;;;10.00;7.33;;;;;;;22.30;50.81;97391.75;5046283;28;20623;-31
2022/11/08 10:27:53;;;;;;;11.43;7.53;;;;;;;22.24;50.84;97382.25;5043774;28;20553;-31
2022/11/08 10:30:22;;;;;;;11.87;7.43;;;;;;;22.30;50.77;97391.75;5025442;28;20193;-31
2022/11/08 10:32:53;;;;;;;10.60;6.77;;;;;;;22.29;50.83;97396.00;5043418;28;20227;-31
2022/11/08 10:35:37;;;;;;;9.63;7.10;;;;;;;22.30;50.74;97389.19;5043069;28;20192;-31
2022/11/08 10:38:12;;;;;;;10.33;7.43;;;;;;;22.30;50.70;97382.41;5045264;28;20211;-31
2022/11/08 10:40:41;;;;;;;9.60;6.87;;;;;;;22.29;50.86;97370.41;5036256;28;20205;-31
2022/11/08 10:43:11;;;;;;;10.97;7.63;;;;;;;22.30;50.95;97387.53;5058870;28;20223;-31
2022/11/08 10:45:37;;;;;;;10.10;7.50;;;;;;;22.31;50.88;97380.69;5040251;28;20217;-31
2022/11/08 10:48:04;;;;;;;8.77;7.03;;;;;;;22.31;50.85;97373.00;5043409;28;20205;-31
2022/11/08 10:50:43;;;;;;;10.43;7.27;;;;;;;22.30;50.92;97379.84;5047946;28;20208;-31
2022/11/08 10:53:22;;;;;;;9.23;6.87;;;;;;;22.31;50.94;97367.88;5051396;28;20220;-31
2022/11/08 10:55:59;;;;;;;9.80;7.00;;;;;;;22.30;51.04;97361.91;5013115;28;20208;-31
2022/11/08 10:58:39;;;;;;;12.53;7.80;;;;;;;22.27;50.99;97355.84;5052408;28;20207;-31
2022/11/08 11:01:17;;;;;;;13.70;8.87;;;;;;;22.30;50.97;97354.22;5041978;28;20225;-31
2022/11/08 11:03:45;;;;;;;14.30;9.27;;;;;;;22.26;50.90;97354.13;5045581;28;20213;-31
2022/11/08 11:06:31;;;;;;;10.47;7.83;;;;;;;22.31;50.88;97367.88;5045044;28;20217;-31
2022/11/08 11:09:00;;;;;;;13.13;8.77;;;;;;;22.31;51.03;97380.69;5036201;28;20263;-31
2022/11/08 11:11:35;;;;;;;12.50;9.07;;;;;;;22.30;51.14;97364.47;5047804;28;20221;-31
2022/11/08 11:14:15;;;;;;;14.73;8.83;;;;;;;22.31;51.20;97360.19;5044330;28;20200;-31
2022/11/08 11:16:52;;;;;;;11.13;8.30;;;;;;;22.29;51.29;97355.03;5056180;28;20332;-31
2022/11/08 11:19:19;;;;;;;11.07;7.97;;;;;;;22.28;51.67;97357.56;5051522;28;20216;-31
2022/11/08 11:21:45;;;;;;;13.13;8.00;;;;;;;22.30;51.11;97361.03;5048233;28;20239;-31
2022/11/08 11:24:18;;;;;;;9.57;7.13;;;;;;;22.31;51.38;97355.06;5031135;28;20205;-31
2022/11/08 11:26:55;;;;;;;10.67;7.93;;;;;;;22.30;51.24;97351.69;5042756;28;20201;-31
2022/11/08 11:29:24;;;;;;;12.53;7.70;;;;;;;22.31;51.20;97340.59;5053854;28;20211;-31
2022/11/08 11:31:51;;;;;;;12.93;7.90;;;;;;;22.31;51.14;97344.84;5039802;28;20719;-31
2022/11/08 11:34:18;;;;;;;10.93;6.97;;;;;;;22.30;51.39;97346.56;5053196;28;20239;-31
2022/11/08 11:36:54;;;;;;;10.47;7.00;;;;;;;22.32;51.55;97341.47;5042641;28;20198;-31
2022/11/08 11:39:27;;;;;;;10.90;7.40;;;;;;;22.30;51.42;97333.75;5027515;28;20198;-31
2022/11/08 11:42:22;;;;;;;8.63;6.80;;;;;;;22.26;51.39;97321.69;5037507;28;20228;-32
2022/11/08 11:45:16;;;;;;;9.17;7.33;;;;;;;22.31;51.29;97332.03;5044662;28;20715;-31
2022/11/08 11:48:15;;;;;;;11.27;7.20;;;;;;;22.30;51.48;97333.75;5045996;28;20671;-31
2022/11/08 11:50:47;;;;;;;9.77;7.27;;;;;;;22.30;51.46;97322.63;5057975;28;20207;-31
2022/11/08 11:53:21;;;;;;;10.37;7.30;;;;;;;22.26;51.26;97320.84;5044437;28;20201;-31
2022/11/08 11:56:06;;;;;;;10.30;7.37;;;;;;;22.31;51.25;97324.34;5018407;28;20201;-31
2022/11/08 11:59:13;;;;;;;9.33;6.70;;;;;;;22.31;51.29;97319.25;5051649;28;20207;-31
2022/11/08 12:01:46;;;;;;;8.87;6.63;;;;;;;22.31;51.34;97320.13;5039437;28;20217;-31
2022/11/08 12:04:20;;;;;;;10.90;7.60;;;;;;;22.30;51.42;97315.84;5036347;28;20699;-31